createdAt,value
2022-07-31T00:01:24.869Z,12.82
2022-07-31T00:03:51.563Z,12.80
2022-07-31T00:06:19.338Z,12.74
2022-07-31T00:08:45.974Z,12.64
2022-07-31T00:11:15.093Z,12.62
2022-07-31T00:13:56.429Z,12.59
2022-07-31T00:16:24.955Z,12.59
2022-07-31T00:18:51.611Z,12.57
2022-07-31T00:21:18.781Z,12.47
2022-07-31T00:23:45.647Z,12.39
2022-07-31T00:26:12.279Z,12.33
2022-07-31T00:28:38.896Z,12.31
2022-07-31T00:31:05.497Z,12.24
2022-07-31T00:33:32.139Z,12.18
2022-07-31T00:35:58.780Z,12.10
2022-07-31T00:38:26.913Z,12.04
2022-07-31T00:40:54.180Z,12.00
2022-07-31T00:43:20.823Z,11.97
2022-07-31T00:45:50.522Z,11.95
2022-07-31T00:48:25.387Z,11.90
2022-07-31T00:50:52.099Z,11.86
2022-07-31T00:53:18.758Z,11.86
2022-07-31T00:55:51.238Z,11.83
2022-07-31T00:58:20.008Z,11.78
2022-07-31T01:00:47.920Z,11.72
2022-07-31T01:03:14.734Z,11.67
2022-07-31T01:05:41.901Z,11.64
2022-07-31T01:08:08.581Z,11.62
2022-07-31T01:10:46.277Z,11.65
2022-07-31T01:13:20.626Z,11.65
2022-07-31T01:15:48.043Z,11.59
2022-07-31T01:18:16.552Z,11.53
2022-07-31T01:20:44.534Z,11.46
2022-07-31T01:23:42.973Z,11.39
2022-07-31T01:26:37.829Z,11.29
2022-07-31T01:29:18.142Z,11.26
2022-07-31T01:32:01.989Z,11.26
2022-07-31T01:34:48.597Z,11.24
2022-07-31T01:37:23.077Z,11.19
2022-07-31T01:39:54.985Z,11.14
2022-07-31T01:42:23.061Z,11.11
2022-07-31T01:44:55.392Z,11.14
2022-07-31T01:47:22.186Z,11.12
2022-07-31T01:49:53.927Z,11.13
2022-07-31T01:52:22.618Z,11.12
2022-07-31T01:54:49.517Z,11.08
2022-07-31T01:57:17.347Z,11.05
2022-07-31T01:59:46.569Z,11.01
2022-07-31T02:02:14.826Z,10.97
2022-07-31T02:04:44.001Z,10.91
2022-07-31T02:07:11.134Z,10.86
2022-07-31T02:09:58.137Z,10.81
2022-07-31T02:12:33.310Z,10.84
2022-07-31T02:15:03.142Z,10.81
2022-07-31T02:17:29.864Z,10.78
2022-07-31T02:20:00.343Z,10.71
2022-07-31T02:22:27.566Z,10.74
2022-07-31T02:24:54.410Z,10.68
2022-07-31T02:27:55.558Z,10.62
2022-07-31T02:30:10.172Z,10.57
2022-07-31T02:32:36.981Z,10.57
2022-07-31T02:35:04.567Z,10.54
2022-07-31T02:37:31.875Z,10.51
2022-07-31T02:39:59.097Z,10.51
2022-07-31T02:42:26.463Z,10.51
2022-07-31T02:44:53.289Z,10.53
2022-07-31T02:47:20.270Z,10.48
2022-07-31T02:49:47.179Z,10.41
2022-07-31T02:52:13.982Z,10.36
2022-07-31T02:54:40.895Z,10.35
2022-07-31T02:57:07.803Z,10.35
2022-07-31T02:59:38.217Z,10.31
2022-07-31T03:02:06.390Z,10.28
2022-07-31T03:04:33.455Z,10.25
2022-07-31T03:07:00.662Z,10.26
2022-07-31T03:09:30.761Z,10.23
2022-07-31T03:12:03.442Z,10.23
2022-07-31T03:14:33.023Z,10.27
2022-07-31T03:17:00.211Z,10.20
2022-07-31T03:19:28.484Z,10.13
2022-07-31T03:21:56.362Z,10.09
2022-07-31T03:24:23.123Z,10.08
2022-07-31T03:26:49.795Z,10.04
2022-07-31T03:29:41.588Z,10.05
2022-07-31T03:32:03.228Z,10.08
2022-07-31T03:34:30.153Z,10.10
2022-07-31T03:36:56.811Z,10.12
2022-07-31T03:39:23.400Z,10.15
2022-07-31T03:41:50.567Z,10.09
2022-07-31T03:44:17.246Z,10.03
2022-07-31T03:46:43.875Z,10.01
2022-07-31T03:49:10.583Z,10.00
2022-07-31T03:51:37.269Z,9.98
2022-07-31T03:54:03.989Z,9.98
2022-07-31T03:56:31.504Z,10.03
2022-07-31T03:58:58.290Z,10.09
2022-07-31T04:01:26.087Z,10.10
2022-07-31T04:04:13.574Z,10.12
2022-07-31T04:06:43.137Z,10.12
2022-07-31T04:09:18.714Z,10.15
2022-07-31T04:11:46.458Z,10.18
2022-07-31T04:14:13.134Z,10.22
2022-07-31T04:16:39.883Z,10.25
2022-07-31T04:19:06.469Z,10.31
2022-07-31T04:21:33.082Z,10.32
2022-07-31T04:24:00.181Z,10.32
2022-07-31T04:26:26.789Z,10.30
2022-07-31T04:28:53.420Z,10.30
2022-07-31T04:31:20.045Z,10.41
2022-07-31T04:33:49.529Z,10.58
2022-07-31T04:36:29.731Z,10.68
2022-07-31T04:38:58.845Z,10.74
2022-07-31T04:41:25.471Z,10.75
2022-07-31T04:43:52.518Z,10.76
2022-07-31T04:46:19.417Z,10.77
2022-07-31T04:48:46.085Z,10.76
2022-07-31T04:51:19.873Z,10.77
2022-07-31T04:53:46.761Z,10.83
2022-07-31T04:56:32.757Z,10.89
2022-07-31T04:59:00.652Z,10.95
2022-07-31T05:01:27.363Z,11.02
2022-07-31T05:03:53.990Z,11.08
2022-07-31T05:06:20.660Z,11.13
2022-07-31T05:08:47.272Z,11.29
2022-07-31T05:11:23.440Z,11.48
2022-07-31T05:13:55.825Z,11.56
2022-07-31T05:16:23.158Z,11.59
2022-07-31T05:18:51.522Z,11.64
2022-07-31T05:21:18.997Z,11.68
2022-07-31T05:23:47.213Z,11.73
2022-07-31T05:26:14.349Z,11.87
2022-07-31T05:28:41.109Z,12.33
2022-07-31T05:31:10.681Z,12.67
2022-07-31T05:33:37.659Z,12.78
2022-07-31T05:36:05.618Z,12.79
2022-07-31T05:38:32.341Z,12.94
2022-07-31T05:40:58.960Z,13.47
2022-07-31T05:43:25.578Z,14.08
2022-07-31T05:45:52.655Z,15.35
2022-07-31T05:48:19.343Z,16.11
2022-07-31T05:50:50.074Z,16.22
2022-07-31T05:53:17.131Z,16.01
2022-07-31T05:55:45.069Z,15.59
2022-07-31T05:58:16.381Z,15.33
2022-07-31T06:00:44.839Z,15.23
2022-07-31T06:03:15.463Z,15.20
2022-07-31T06:05:42.426Z,15.36
2022-07-31T06:08:09.917Z,15.68
2022-07-31T06:10:37.609Z,16.03
2022-07-31T06:13:05.225Z,17.46
2022-07-31T06:15:36.046Z,19.10
2022-07-31T06:18:04.065Z,20.42
2022-07-31T06:20:30.853Z,21.28
2022-07-31T06:22:57.663Z,21.73
2022-07-31T06:25:31.892Z,21.94
2022-07-31T06:28:01.673Z,22.14
2022-07-31T06:30:30.956Z,22.32
2022-07-31T06:32:57.558Z,22.54
2022-07-31T06:35:25.057Z,22.74
2022-07-31T06:37:51.681Z,22.96
2022-07-31T06:40:18.387Z,23.24
2022-07-31T06:42:45.833Z,23.39
2022-07-31T06:45:18.394Z,23.55
2022-07-31T06:47:56.775Z,23.82
2022-07-31T06:50:23.448Z,23.51
2022-07-31T06:52:50.160Z,23.89
2022-07-31T06:55:18.174Z,24.21
2022-07-31T06:57:44.810Z,24.56
2022-07-31T07:00:19.732Z,24.97
2022-07-31T07:02:47.382Z,25.09
2022-07-31T07:05:14.427Z,25.17
2022-07-31T07:07:41.155Z,25.35
2022-07-31T07:10:08.038Z,25.49
2022-07-31T07:12:34.948Z,25.62
2022-07-31T07:15:01.620Z,25.72
2022-07-31T07:17:29.584Z,25.97
2022-07-31T07:19:56.886Z,25.95
2022-07-31T07:22:31.347Z,25.97
2022-07-31T07:24:59.940Z,25.71
2022-07-31T07:27:26.587Z,25.66
2022-07-31T07:29:53.280Z,25.97
2022-07-31T07:32:19.890Z,26.17
2022-07-31T07:34:46.504Z,26.22
2022-07-31T07:37:13.122Z,25.99
2022-07-31T07:39:39.817Z,26.08
2022-07-31T07:42:06.894Z,26.21
2022-07-31T07:44:34.058Z,26.30
2022-07-31T07:47:00.750Z,26.53
2022-07-31T07:49:27.441Z,26.76
2022-07-31T07:51:58.851Z,27.16
2022-07-31T07:54:27.287Z,27.35
2022-07-31T07:56:54.978Z,27.14
2022-07-31T07:59:21.903Z,26.92
2022-07-31T08:01:48.526Z,27.01
2022-07-31T08:04:15.134Z,26.94
2022-07-31T08:06:41.757Z,26.98
2022-07-31T08:09:08.402Z,26.63
2022-07-31T08:11:35.072Z,26.77
2022-07-31T08:14:01.674Z,27.10
2022-07-31T08:16:28.270Z,27.33
2022-07-31T08:18:54.902Z,27.34
2022-07-31T08:21:21.986Z,26.96
2022-07-31T08:23:48.626Z,26.87
2022-07-31T08:26:18.240Z,27.16
2022-07-31T08:28:50.699Z,27.45
2022-07-31T08:31:19.084Z,27.46
2022-07-31T08:33:45.805Z,27.39
2022-07-31T08:36:12.615Z,27.10
2022-07-31T08:38:40.361Z,27.12
2022-07-31T08:41:06.977Z,27.32
2022-07-31T08:44:01.687Z,27.42
2022-07-31T08:46:20.510Z,27.30
2022-07-31T08:48:48.383Z,27.17
2022-07-31T08:51:16.709Z,27.48
2022-07-31T08:53:43.956Z,27.88
2022-07-31T08:56:10.788Z,28.20
2022-07-31T08:58:39.931Z,28.39
2022-07-31T09:01:08.424Z,28.48
2022-07-31T09:03:36.184Z,28.69
2022-07-31T09:06:04.395Z,28.78
2022-07-31T09:08:32.970Z,28.75
2022-07-31T09:11:05.947Z,28.32
2022-07-31T09:13:34.828Z,28.48
2022-07-31T09:16:02.565Z,28.34
2022-07-31T09:18:29.240Z,28.36
2022-07-31T09:21:02.056Z,28.90
2022-07-31T09:23:29.838Z,29.37
2022-07-31T09:26:04.908Z,29.77
2022-07-31T09:28:39.285Z,30.22
2022-07-31T09:31:08.057Z,30.38
2022-07-31T09:33:36.647Z,29.86
2022-07-31T09:36:04.757Z,30.03
2022-07-31T09:38:43.935Z,29.61
2022-07-31T09:41:56.716Z,29.91
2022-07-31T09:44:10.126Z,29.19
2022-07-31T09:46:42.164Z,29.78
2022-07-31T09:49:09.050Z,29.78
2022-07-31T09:51:46.187Z,30.17
2022-07-31T09:54:29.928Z,30.48
2022-07-31T09:56:57.195Z,29.93
2022-07-31T09:59:25.208Z,30.49
2022-07-31T10:01:52.522Z,30.82
2022-07-31T10:04:20.415Z,30.64
2022-07-31T10:06:48.931Z,30.54
2022-07-31T10:09:15.982Z,30.81
2022-07-31T10:11:42.980Z,30.44
2022-07-31T10:14:15.884Z,29.94
2022-07-31T10:16:44.207Z,30.10
2022-07-31T10:19:12.666Z,29.96
2022-07-31T10:21:44.612Z,29.76
2022-07-31T10:24:12.491Z,29.95
2022-07-31T10:26:59.896Z,30.08
2022-07-31T10:29:27.134Z,30.54
2022-07-31T10:31:58.938Z,30.15
2022-07-31T10:34:26.674Z,30.58
2022-07-31T10:36:54.937Z,30.47
2022-07-31T10:39:30.120Z,29.35
2022-07-31T10:42:08.211Z,29.37
2022-07-31T10:44:51.299Z,29.65
2022-07-31T10:47:18.807Z,29.93
2022-07-31T10:49:48.294Z,30.07
2022-07-31T10:52:32.769Z,30.23
2022-07-31T10:55:01.653Z,30.54
2022-07-31T10:57:33.289Z,30.22
2022-07-31T11:00:14.340Z,30.61
2022-07-31T11:02:46.060Z,30.88
2022-07-31T11:05:15.709Z,31.13
2022-07-31T11:07:45.622Z,30.86
2022-07-31T11:10:15.048Z,31.32
2022-07-31T11:12:41.884Z,31.66
2022-07-31T11:15:23.502Z,31.86
2022-07-31T11:18:25.199Z,32.19
2022-07-31T11:20:37.926Z,32.17
2022-07-31T11:23:06.216Z,31.96
2022-07-31T11:25:35.306Z,31.35
2022-07-31T11:28:24.832Z,31.65
2022-07-31T11:30:55.826Z,31.36
2022-07-31T11:33:41.756Z,31.06
2022-07-31T11:36:25.740Z,30.45
2022-07-31T11:38:56.298Z,30.72
2022-07-31T11:41:28.826Z,31.30
2022-07-31T11:43:57.645Z,31.31
2022-07-31T11:46:32.017Z,31.52
2022-07-31T11:48:59.514Z,31.47
2022-07-31T11:51:26.705Z,31.47
2022-07-31T11:53:57.248Z,31.47
2022-07-31T11:56:28.202Z,31.56
2022-07-31T11:58:57.230Z,31.93
2022-07-31T12:01:27.862Z,31.59
2022-07-31T12:03:55.076Z,31.89
2022-07-31T12:06:22.205Z,32.22
2022-07-31T12:08:50.314Z,31.38
2022-07-31T12:11:18.711Z,31.64
2022-07-31T12:13:49.211Z,31.83
2022-07-31T12:16:16.574Z,31.85
2022-07-31T12:18:52.562Z,32.20
2022-07-31T12:21:20.127Z,32.25
2022-07-31T12:23:50.838Z,32.14
2022-07-31T12:26:27.340Z,31.92
2022-07-31T12:29:05.729Z,32.07
2022-07-31T12:31:43.839Z,31.69
2022-07-31T12:34:10.624Z,31.45
2022-07-31T12:36:37.265Z,31.73
2022-07-31T12:39:05.098Z,31.97
2022-07-31T12:41:41.534Z,32.00
2022-07-31T12:44:13.218Z,31.94
2022-07-31T12:46:41.139Z,31.65
2022-07-31T12:49:08.480Z,31.50
2022-07-31T12:51:45.012Z,31.12
2022-07-31T12:54:14.907Z,31.08
2022-07-31T12:56:42.064Z,30.87
2022-07-31T12:59:09.354Z,30.64
2022-07-31T13:01:36.752Z,30.45
2022-07-31T13:04:05.598Z,30.23
2022-07-31T13:06:35.175Z,30.22
2022-07-31T13:09:01.831Z,30.33
2022-07-31T13:11:46.989Z,30.60
2022-07-31T13:14:16.529Z,29.98
2022-07-31T13:16:43.741Z,30.06
2022-07-31T13:19:10.515Z,29.87
2022-07-31T13:21:48.176Z,29.82
2022-07-31T13:24:15.444Z,30.09
2022-07-31T13:26:44.997Z,30.01
2022-07-31T13:29:11.981Z,30.06
2022-07-31T13:31:39.242Z,29.82
2022-07-31T13:34:06.180Z,29.70
2022-07-31T13:36:38.599Z,29.59
2022-07-31T13:39:05.753Z,29.58
2022-07-31T13:41:34.251Z,29.54
2022-07-31T13:44:01.323Z,29.55
2022-07-31T13:46:28.114Z,29.43
2022-07-31T13:48:56.862Z,29.44
2022-07-31T13:51:24.075Z,29.29
2022-07-31T13:53:55.706Z,29.33
2022-07-31T13:56:39.202Z,29.11
2022-07-31T13:59:09.414Z,29.02
2022-07-31T14:02:03.150Z,28.94
2022-07-31T14:04:24.903Z,28.76
2022-07-31T14:06:51.796Z,28.58
2022-07-31T14:09:19.450Z,28.57
2022-07-31T14:11:46.174Z,28.25
2022-07-31T14:14:15.115Z,28.36
2022-07-31T14:16:49.682Z,28.34
2022-07-31T14:19:16.626Z,28.29
2022-07-31T14:21:56.242Z,28.23
2022-07-31T14:24:24.410Z,28.29
2022-07-31T14:26:51.099Z,28.37
2022-07-31T14:29:17.786Z,28.59
2022-07-31T14:31:44.522Z,28.80
2022-07-31T14:34:11.147Z,29.22
2022-07-31T14:36:37.871Z,29.36
2022-07-31T14:39:04.526Z,29.63
2022-07-31T14:41:31.250Z,29.37
2022-07-31T14:43:57.907Z,29.36
2022-07-31T14:46:24.502Z,29.84
2022-07-31T14:48:51.936Z,29.90
2022-07-31T14:51:19.285Z,30.04
2022-07-31T14:53:46.890Z,30.30
2022-07-31T14:56:13.635Z,30.11
2022-07-31T14:58:58.165Z,30.34
2022-07-31T15:01:30.516Z,30.06
2022-07-31T15:03:58.434Z,30.09
2022-07-31T15:06:40.907Z,29.93
2022-07-31T15:09:12.155Z,29.51
2022-07-31T15:11:59.118Z,29.29
2022-07-31T15:14:29.215Z,29.17
2022-07-31T15:16:55.932Z,29.43
2022-07-31T15:19:22.530Z,28.99
2022-07-31T15:22:10.947Z,28.81
2022-07-31T15:24:36.056Z,28.82
2022-07-31T15:27:03.123Z,28.62
2022-07-31T15:30:05.392Z,28.43
2022-07-31T15:32:16.688Z,28.33
2022-07-31T15:34:43.310Z,28.32
2022-07-31T15:37:09.923Z,28.23
2022-07-31T15:40:01.518Z,27.99
2022-07-31T15:42:33.362Z,27.73
2022-07-31T15:45:00.228Z,27.56
2022-07-31T15:47:27.995Z,27.43
2022-07-31T15:49:54.637Z,27.37
2022-07-31T15:52:21.369Z,27.26
2022-07-31T15:54:51.980Z,27.21
2022-07-31T15:57:20.930Z,27.18
2022-07-31T15:59:48.620Z,27.18
2022-07-31T16:02:15.777Z,27.08
2022-07-31T16:04:51.723Z,27.03
2022-07-31T16:08:29.870Z,26.96
2022-07-31T16:10:16.761Z,26.82
2022-07-31T16:12:45.969Z,26.80
2022-07-31T16:15:12.869Z,26.68
2022-07-31T16:17:40.087Z,26.67
2022-07-31T16:20:11.905Z,26.62
2022-07-31T16:22:39.968Z,26.61
2022-07-31T16:25:08.188Z,26.60
2022-07-31T16:27:34.800Z,26.59
2022-07-31T16:30:03.067Z,26.60
2022-07-31T16:32:30.271Z,26.62
2022-07-31T16:35:00.977Z,26.71
2022-07-31T16:37:49.878Z,26.68
2022-07-31T16:40:28.789Z,26.60
2022-07-31T16:43:02.260Z,26.52
2022-07-31T16:45:48.656Z,26.44
2022-07-31T16:48:15.278Z,26.38
2022-07-31T16:50:41.895Z,26.30
2022-07-31T16:53:08.661Z,26.22
2022-07-31T16:55:46.144Z,26.15
2022-07-31T16:58:27.069Z,26.11
2022-07-31T17:00:53.725Z,26.05
2022-07-31T17:03:58.984Z,26.00
2022-07-31T17:06:10.463Z,25.96
2022-07-31T17:08:38.293Z,25.90
2022-07-31T17:11:05.338Z,25.83
2022-07-31T17:13:32.255Z,25.77
2022-07-31T17:15:59.021Z,25.75
2022-07-31T17:18:26.046Z,25.70
2022-07-31T17:20:56.078Z,25.64
2022-07-31T17:23:43.589Z,25.57
2022-07-31T17:26:21.322Z,25.52
2022-07-31T17:28:50.577Z,25.50
2022-07-31T17:31:18.433Z,25.46
2022-07-31T17:33:55.845Z,25.38
2022-07-31T17:36:26.885Z,25.31
2022-07-31T17:38:53.637Z,25.25
2022-07-31T17:41:25.453Z,25.17
2022-07-31T17:43:54.097Z,25.06
2022-07-31T17:46:28.157Z,24.99
2022-07-31T17:49:01.938Z,24.90
2022-07-31T17:51:28.873Z,24.83
2022-07-31T17:53:59.107Z,24.74
2022-07-31T17:56:26.564Z,24.64
2022-07-31T17:58:53.278Z,24.56
2022-07-31T18:01:22.404Z,24.47
2022-07-31T18:03:51.138Z,24.37
2022-07-31T18:06:17.714Z,24.28
2022-07-31T18:08:44.355Z,24.20
2022-07-31T18:11:10.957Z,24.11
2022-07-31T18:13:39.139Z,24.03
2022-07-31T18:16:17.971Z,23.95
2022-07-31T18:18:44.897Z,23.89
2022-07-31T18:21:12.055Z,23.83
2022-07-31T18:23:47.149Z,23.77
2022-07-31T18:26:14.393Z,23.70
2022-07-31T18:28:41.087Z,23.66
2022-07-31T18:31:13.931Z,23.61
2022-07-31T18:33:54.449Z,23.53
2022-07-31T18:36:21.320Z,23.46
2022-07-31T18:38:47.997Z,23.42
2022-07-31T18:41:14.721Z,23.37
2022-07-31T18:43:41.333Z,23.32
2022-07-31T18:46:08.103Z,23.25
2022-07-31T18:48:34.841Z,23.19
2022-07-31T18:51:04.727Z,23.11
2022-07-31T18:53:32.872Z,23.03
2022-07-31T18:55:59.514Z,22.97
2022-07-31T18:58:26.315Z,22.91
2022-07-31T19:00:55.097Z,22.84
2022-07-31T19:03:23.599Z,22.79
2022-07-31T19:05:52.899Z,22.75
2022-07-31T19:08:20.195Z,22.71
2022-07-31T19:10:49.306Z,22.66
2022-07-31T19:13:19.419Z,22.62
2022-07-31T19:15:47.777Z,22.58
2022-07-31T19:18:15.356Z,22.55
2022-07-31T19:20:58.903Z,22.51
2022-07-31T19:23:31.853Z,22.44
2022-07-31T19:26:02.428Z,22.39
2022-07-31T19:28:30.226Z,22.37
2022-07-31T19:30:56.927Z,22.33
2022-07-31T19:33:23.526Z,22.32
2022-07-31T19:35:56.816Z,22.32
2022-07-31T19:38:27.623Z,22.27
2022-07-31T19:40:54.582Z,22.21
2022-07-31T19:43:27.302Z,22.13
2022-07-31T19:45:57.693Z,22.05
2022-07-31T19:48:41.877Z,21.99
2022-07-31T19:51:09.518Z,22.04
2022-07-31T19:53:36.251Z,22.05
2022-07-31T19:56:05.652Z,21.97
2022-07-31T19:58:39.382Z,21.85
2022-07-31T20:01:06.253Z,21.75
2022-07-31T20:03:33.538Z,21.78
2022-07-31T20:06:01.002Z,21.73
2022-07-31T20:08:28.134Z,21.66
2022-07-31T20:11:01.918Z,21.61
2022-07-31T20:13:30.099Z,21.56
2022-07-31T20:15:57.730Z,21.54
2022-07-31T20:18:30.111Z,21.52
2022-07-31T20:21:04.774Z,21.54
2022-07-31T20:23:31.703Z,21.47
2022-07-31T20:25:58.597Z,21.42
2022-07-31T20:28:27.236Z,21.38
2022-07-31T20:30:54.283Z,21.32
2022-07-31T20:33:20.922Z,21.30
2022-07-31T20:35:50.087Z,21.27
